Time;durP1;ratioP1;P1;durP2;ratioP2;P2;SDS_P1;SDS_P2;PMS_P1;PMS_P2;Temp;Humidity;BMP_temperature;BMP_pressure;BME280_temperature;BME280_humidity;BME280_pressure;Samples;Min_cycle;Max_cycle;Signal;HPM_P1;HPM_P2
2021/01/15 00:01:05;;;;;;;45.03;41.47;;;2.20;71.10;;;;;;4993929;28;20176;-75
2021/01/15 00:03:38;;;;;;;34.63;32.25;;;2.30;72.50;;;;;;4994173;28;20662;-75
2021/01/15 00:06:05;;;;;;;39.42;36.22;;;2.30;72.10;;;;;;5025301;28;20298;-75
2021/01/15 00:08:40;;;;;;;40.88;37.60;;;2.30;71.30;;;;;;4993798;28;20245;-76
2021/01/15 00:11:14;;;;;;;35.53;32.00;;;2.30;72.70;;;;;;4994436;28;20195;-75
2021/01/15 00:13:39;;;;;;;38.35;35.30;;;2.30;72.20;;;;;;4994587;28;20172;-75
2021/01/15 00:16:05;;;;;;;34.57;31.77;;;2.40;71.10;;;;;;4994053;28;20168;-75
2021/01/15 00:18:30;;;;;;;41.47;38.07;;;2.30;71.10;;;;;;4993691;28;20215;-75
2021/01/15 00:20:56;;;;;;;41.83;38.50;;;2.40;70.90;;;;;;4993829;28;20222;-75
2021/01/15 00:23:21;;;;;;;36.63;34.00;;;2.30;70.00;;;;;;5025276;28;20230;-75
2021/01/15 00:25:47;;;;;;;38.90;35.70;;;2.30;70.80;;;;;;4993623;28;20184;-76
2021/01/15 00:28:13;;;;;;;38.10;34.70;;;2.40;69.10;;;;;;4994087;28;20176;-75
2021/01/15 00:30:38;;;;;;;37.80;34.60;;;2.40;68.40;;;;;;5008736;28;20209;-75
2021/01/15 00:33:04;;;;;;;39.40;36.50;;;2.40;67.00;;;;;;4995732;28;20168;-75
2021/01/15 00:35:30;;;;;;;37.07;33.90;;;2.40;65.80;;;;;;4997296;28;20712;-76
2021/01/15 00:37:56;;;;;;;35.10;32.60;;;2.40;65.50;;;;;;4997167;28;20459;-76
2021/01/15 00:40:22;;;;;;;37.57;34.80;;;2.30;65.30;;;;;;4997195;28;20709;-76
2021/01/15 00:42:47;;;;;;;38.57;35.90;;;2.30;66.60;;;;;;4997230;28;20418;-76
2021/01/15 00:45:16;;;;;;;34.50;31.77;;;2.30;66.90;;;;;;4997199;28;20176;-76
2021/01/15 00:47:43;;;;;;;41.25;38.45;;;2.30;67.90;;;;;;4997291;28;20306;-76
2021/01/15 00:50:10;;;;;;;40.50;37.38;;;2.30;66.90;;;;;;4997002;28;20251;-75
2021/01/15 00:52:35;;;;;;;39.53;36.35;;;2.30;67.30;;;;;;5012035;28;20295;-75
2021/01/15 00:55:01;;;;;;;43.87;41.07;;;2.30;67.90;;;;;;4997282;28;20312;-75
2021/01/15 00:57:27;;;;;;;41.63;38.77;;;2.30;68.10;;;;;;4996864;28;20210;-75
2021/01/15 00:59:52;;;;;;;34.23;31.73;;;2.30;67.80;;;;;;4996810;28;20199;-75
2021/01/15 01:02:18;;;;;;;37.77;35.43;;;2.30;67.80;;;;;;4997121;28;20175;-75
2021/01/15 01:04:43;;;;;;;38.20;35.20;;;2.30;67.50;;;;;;4996841;28;20648;-75
2021/01/15 01:07:09;;;;;;;39.63;36.63;;;2.20;67.20;;;;;;4996715;28;20651;-75
2021/01/15 01:09:34;;;;;;;35.33;32.57;;;2.20;67.40;;;;;;4996659;28;20600;-75
2021/01/15 01:12:00;;;;;;;36.50;33.80;;;2.20;67.50;;;;;;4997124;28;20240;-75
2021/01/15 01:14:25;;;;;;;39.03;36.13;;;2.20;69.10;;;;;;4996601;28;20227;-75
2021/01/15 01:16:51;;;;;;;39.83;36.60;;;2.20;69.50;;;;;;4996709;28;20231;-76
2021/01/15 01:19:16;;;;;;;39.67;36.77;;;2.20;69.10;;;;;;4996856;28;20192;-76
2021/01/15 01:21:42;;;;;;;42.00;38.57;;;2.20;69.70;;;;;;4996545;28;20191;-75
2021/01/15 01:24:08;;;;;;;41.13;37.83;;;2.10;68.90;;;;;;5028613;28;20183;-76
2021/01/15 01:26:33;;;;;;;40.80;37.70;;;2.10;68.70;;;;;;5011722;28;20593;-75
2021/01/15 01:28:59;;;;;;;34.90;32.50;;;2.10;68.40;;;;;;4996253;28;20195;-76
2021/01/15 01:31:24;;;;;;;36.70;34.00;;;2.00;68.30;;;;;;4996257;28;20203;-76
2021/01/15 01:33:50;;;;;;;36.73;33.83;;;2.00;68.10;;;;;;4996359;28;20741;-76
2021/01/15 01:36:16;;;;;;;35.73;32.90;;;2.00;67.50;;;;;;4994764;28;20188;-75
2021/01/15 01:38:42;;;;;;;39.47;35.40;;;2.00;68.90;;;;;;5027650;28;20200;-75
2021/01/15 01:41:08;;;;;;;37.05;33.95;;;2.00;70.80;;;;;;4996128;28;20172;-76
2021/01/15 01:43:33;;;;;;;34.08;31.23;;;2.00;69.10;;;;;;4995745;28;20179;-75
2021/01/15 01:46:03;;;;;;;36.33;33.60;;;2.00;68.30;;;;;;4995967;28;20171;-76
2021/01/15 01:48:29;;;;;;;35.88;33.15;;;2.00;69.10;;;;;;4995908;28;20196;-76
2021/01/15 01:50:55;;;;;;;36.55;33.85;;;2.00;67.80;;;;;;4996484;28;20208;-75
2021/01/15 01:53:22;;;;;;;41.97;38.92;;;1.90;70.80;;;;;;4996135;28;20255;-75
2021/01/15 01:55:48;;;;;;;39.95;37.17;;;1.90;68.40;;;;;;5027292;28;20238;-76
2021/01/15 01:58:16;;;;;;;43.40;40.10;;;1.90;70.20;;;;;;4995803;28;20635;-76
2021/01/15 02:00:43;;;;;;;42.80;39.22;;;1.90;71.00;;;;;;4996074;28;20218;-75
2021/01/15 02:03:09;;;;;;;42.40;39.25;;;1.90;71.10;;;;;;4995739;28;20255;-75
2021/01/15 02:05:35;;;;;;;39.90;36.90;;;1.90;74.90;;;;;;4995595;28;20172;-75
2021/01/15 02:08:01;;;;;;;37.33;34.53;;;1.90;74.20;;;;;;4995796;28;20215;-75
2021/01/15 02:11:04;;;;;;;38.23;35.53;;;1.90;74.60;;;;;;4995862;28;20219;-75
2021/01/15 02:14:09;;;;;;;44.50;41.25;;;1.90;74.40;;;;;;4993960;28;20184;-75
2021/01/15 02:16:35;;;;;;;37.17;34.65;;;1.90;74.50;;;;;;4995680;28;20701;-76
2021/01/15 02:19:32;;;;;;;38.10;35.17;;;1.90;77.10;;;;;;4995600;28;20240;-76
2021/01/15 02:22:40;;;;;;;41.95;38.55;;;1.90;77.30;;;;;;4994482;28;20552;-76
2021/01/15 02:25:26;;;;;;;42.03;39.05;;;2.00;78.30;;;;;;4995422;28;20167;-76
2021/01/15 02:28:10;;;;;;;34.72;32.00;;;2.00;78.90;;;;;;4995277;28;20160;-75
2021/01/15 02:30:47;;;;;;;44.55;41.47;;;2.00;77.70;;;;;;4995549;28;20618;-75
2021/01/15 02:33:31;;;;;;;37.25;33.88;;;2.00;77.00;;;;;;4995443;28;20164;-75
2021/01/15 02:36:21;;;;;;;40.70;37.50;;;2.00;85.10;;;;;;4994071;28;20601;-75
2021/01/15 02:38:54;;;;;;;34.63;31.80;;;2.00;77.70;;;;;;4995012;28;20560;-75
2021/01/15 02:41:24;;;;;;;35.78;33.20;;;2.00;76.50;;;;;;4995696;28;20160;-76
2021/01/15 02:44:00;;;;;;;35.95;33.35;;;2.00;77.30;;;;;;4994645;28;20233;-75
2021/01/15 02:46:49;;;;;;;34.75;31.63;;;2.00;77.50;;;;;;4994870;28;20155;-76
2021/01/15 02:49:16;;;;;;;39.20;36.25;;;2.10;76.50;;;;;;4994776;28;20230;-75
2021/01/15 02:51:42;;;;;;;35.58;32.25;;;2.00;77.80;;;;;;4994767;28;20214;-75
2021/01/15 02:54:08;;;;;;;38.67;35.90;;;2.10;78.30;;;;;;4994828;28;20176;-75
2021/01/15 02:56:35;;;;;;;36.13;33.42;;;2.10;77.40;;;;;;4994198;28;20426;-75
2021/01/15 02:59:01;;;;;;;35.63;32.80;;;2.10;77.60;;;;;;4994579;28;20621;-75
2021/01/15 03:01:31;;;;;;;35.43;32.70;;;2.10;78.40;;;;;;4994643;28;20199;-75
2021/01/15 03:04:08;;;;;;;37.97;34.65;;;2.10;78.60;;;;;;4994908;28;20191;-75
2021/01/15 03:06:51;;;;;;;41.88;38.42;;;2.10;80.50;;;;;;4994532;28;20198;-75
2021/01/15 03:09:17;;;;;;;38.70;35.83;;;2.10;81.60;;;;;;4994865;28;20274;-75
2021/01/15 03:11:45;;;;;;;40.05;37.33;;;2.10;82.10;;;;;;4993189;28;20230;-75
2021/01/15 03:14:13;;;;;;;39.17;36.38;;;2.10;82.00;;;;;;4994451;28;20176;-75
2021/01/15 03:16:41;;;;;;;37.63;34.20;;;2.20;83.20;;;;;;4994288;28;20222;-75
2021/01/15 03:19:06;;;;;;;44.60;41.00;;;2.20;83.90;;;;;;4994303;28;20184;-75
2021/01/15 03:21:37;;;;;;;27.33;25.13;;;2.20;84.50;;;;;;4994376;28;20689;-75
2021/01/15 03:24:05;;;;;;;38.83;35.83;;;2.10;83.60;;;;;;4994362;28;20458;-75
2021/01/15 03:26:31;;;;;;;40.42;37.53;;;2.20;83.60;;;;;;4994144;28;20280;-76
2021/01/15 03:28:57;;;;;;;34.55;31.65;;;2.20;83.30;;;;;;4994184;28;20225;-75
2021/01/15 03:31:23;;;;;;;32.77;29.90;;;2.20;83.40;;;;;;4994154;28;20207;-75
2021/01/15 03:33:49;;;;;;;34.58;31.92;;;2.20;83.50;;;;;;4994170;28;20631;-76
2021/01/15 03:36:14;;;;;;;32.47;29.57;;;2.20;85.20;;;;;;4994015;28;20186;-75
2021/01/15 03:38:40;;;;;;;33.17;30.07;;;2.30;84.00;;;;;;4994372;28;20658;-75
2021/01/15 03:41:06;;;;;;;34.13;31.60;;;2.30;84.00;;;;;;4994083;28;20184;-75
2021/01/15 03:43:31;;;;;;;36.00;33.17;;;2.30;84.00;;;;;;4994084;28;20203;-75
2021/01/15 03:45:57;;;;;;;37.37;34.57;;;2.30;84.10;;;;;;4993990;28;20180;-75
2021/01/15 03:48:22;;;;;;;33.27;30.77;;;2.30;83.90;;;;;;4994539;28;20192;-75
2021/01/15 03:50:51;;;;;;;27.93;25.83;;;2.20;83.40;;;;;;5025491;28;20175;-75
2021/01/15 03:53:17;;;;;;;43.25;40.33;;;2.20;83.60;;;;;;4994009;28;20230;-75
2021/01/15 03:55:44;;;;;;;36.40;33.90;;;2.20;83.30;;;;;;4993890;28;20168;-75
2021/01/15 03:58:10;;;;;;;34.90;31.95;;;2.20;84.30;;;;;;4993918;28;20634;-75
2021/01/15 04:00:35;;;;;;;39.95;37.00;;;2.20;84.50;;;;;;4993984;28;20303;-75
2021/01/15 04:03:01;;;;;;;38.53;35.30;;;2.20;83.80;;;;;;4994240;28;20695;-75
2021/01/15 04:05:27;;;;;;;40.37;37.50;;;2.20;84.70;;;;;;4994196;28;20172;-75
2021/01/15 04:07:52;;;;;;;36.47;33.47;;;2.30;85.60;;;;;;4997021;28;20203;-75
2021/01/15 04:10:19;;;;;;;38.07;35.30;;;2.30;85.10;;;;;;4998224;28;20614;-75
2021/01/15 04:12:45;;;;;;;39.70;36.90;;;2.30;84.50;;;;;;5012780;28;20759;-75
2021/01/15 04:15:12;;;;;;;35.70;32.80;;;2.30;85.80;;;;;;4997791;28;20266;-75
2021/01/15 04:17:39;;;;;;;38.50;35.25;;;2.30;85.40;;;;;;4997704;28;20259;-76
2021/01/15 04:20:06;;;;;;;46.15;43.05;;;2.40;85.90;;;;;;4997615;28;20191;-75
2021/01/15 04:22:36;;;;;;;37.65;34.67;;;2.40;85.70;;;;;;4997623;28;20191;-75
2021/01/15 04:25:02;;;;;;;39.60;36.42;;;2.40;86.10;;;;;;4997880;28;20599;-75
2021/01/15 04:27:32;;;;;;;40.08;37.03;;;2.40;86.10;;;;;;4997398;28;20176;-75
2021/01/15 04:29:59;;;;;;;36.28;33.15;;;2.40;85.30;;;;;;4997433;28;20290;-75
2021/01/15 04:32:24;;;;;;;33.80;31.50;;;2.40;85.50;;;;;;4997447;28;20238;-75
2021/01/15 04:34:50;;;;;;;42.80;39.50;;;2.40;85.20;;;;;;4997429;28;20175;-75
2021/01/15 04:37:16;;;;;;;40.63;37.87;;;2.40;84.70;;;;;;4997175;28;20183;-75
2021/01/15 04:39:42;;;;;;;40.37;37.43;;;2.40;85.00;;;;;;4995987;28;20650;-75
2021/01/15 04:42:11;;;;;;;36.53;33.00;;;2.40;85.00;;;;;;4997889;28;20407;-75
2021/01/15 04:44:36;;;;;;;32.90;30.10;;;2.40;85.40;;;;;;4997164;28;20319;-75
2021/01/15 04:47:02;;;;;;;36.90;33.60;;;2.40;86.30;;;;;;4997095;28;20632;-75
2021/01/15 04:49:29;;;;;;;34.30;31.63;;;2.40;85.20;;;;;;4997601;28;20192;-75
2021/01/15 04:51:57;;;;;;;34.55;31.75;;;2.40;85.80;;;;;;4995704;28;20489;-75
2021/01/15 04:54:38;;;;;;;36.15;33.45;;;2.40;85.80;;;;;;4997128;28;20168;-75
2021/01/15 04:57:06;;;;;;;36.10;32.83;;;2.50;85.70;;;;;;4997034;28;20193;-75
2021/01/15 04:59:48;;;;;;;35.15;32.45;;;2.50;85.90;;;;;;4996827;28;20188;-75
2021/01/15 05:02:19;;;;;;;33.97;31.23;;;2.50;86.40;;;;;;4996847;28;20188;-75
2021/01/15 05:04:44;;;;;;;33.83;31.17;;;2.50;86.70;;;;;;4996966;28;20196;-75
2021/01/15 05:07:14;;;;;;;40.03;36.70;;;2.50;86.90;;;;;;4996716;28;20210;-75
2021/01/15 05:09:45;;;;;;;29.25;26.65;;;2.50;87.30;;;;;;4996794;28;20551;-75
2021/01/15 05:12:15;;;;;;;38.03;35.22;;;2.50;87.10;;;;;;4996654;28;20199;-75
2021/01/15 05:14:49;;;;;;;35.50;32.45;;;2.50;87.30;;;;;;4996990;28;20182;-75
2021/01/15 05:17:18;;;;;;;39.85;36.83;;;2.40;87.80;;;;;;4995858;28;20172;-75
2021/01/15 05:19:44;;;;;;;35.72;32.55;;;2.40;89.10;;;;;;4994517;28;20198;-75
2021/01/15 05:22:13;;;;;;;31.85;29.27;;;2.40;90.10;;;;;;4996607;28;20179;-75
2021/01/15 05:24:39;;;;;;;31.73;28.75;;;2.50;89.90;;;;;;4996738;28;20176;-75
2021/01/15 05:30:17;;;;;;;43.33;39.58;;;2.50;90.40;;;;;;4996874;28;20206;-75
2021/01/15 05:32:43;;;;;;;37.38;33.83;;;2.50;90.60;;;;;;4996285;28;20227;-75
2021/01/15 05:35:09;;;;;;;41.40;38.25;;;2.50;89.80;;;;;;4996274;28;20190;-75
2021/01/15 05:37:35;;;;;;;39.95;36.35;;;2.60;89.50;;;;;;4995985;28;20196;-75
2021/01/15 05:40:02;;;;;;;44.97;41.33;;;2.60;89.60;;;;;;4996177;28;20192;-75
2021/01/15 05:42:28;;;;;;;38.10;34.95;;;2.60;89.90;;;;;;4996236;28;20176;-75
2021/01/15 05:45:14;;;;;;;47.03;42.33;;;2.60;89.80;;;;;;4996093;28;20230;-75
2021/01/15 05:47:44;;;;;;;45.35;41.65;;;2.60;89.10;;;;;;4994789;28;20168;-75
2021/01/15 05:50:11;;;;;;;46.15;42.90;;;2.60;90.00;;;;;;4995983;28;20192;-75
2021/01/15 05:52:52;;;;;;;38.30;35.00;;;2.60;90.20;;;;;;4996359;28;20650;-75
2021/01/15 05:55:18;;;;;;;38.17;34.67;;;2.60;90.20;;;;;;4996613;28;20263;-75
2021/01/15 05:57:47;;;;;;;36.33;32.80;;;2.60;90.10;;;;;;4995845;28;20255;-75
2021/01/15 06:00:32;;;;;;;37.72;34.22;;;2.60;90.30;;;;;;4994468;28;20423;-75
2021/01/15 06:02:58;;;;;;;37.10;33.80;;;2.60;89.60;;;;;;4995794;28;20164;-75
2021/01/15 06:05:24;;;;;;;42.90;39.10;;;2.60;89.80;;;;;;4995747;28;20533;-75
2021/01/15 06:07:55;;;;;;;40.50;37.35;;;2.60;90.20;;;;;;4995604;28;20242;-76
2021/01/15 06:10:21;;;;;;;41.72;37.97;;;2.60;90.70;;;;;;4994349;28;20207;-75
2021/01/15 06:12:46;;;;;;;42.10;38.73;;;2.60;89.30;;;;;;4995776;28;20233;-75
2021/01/15 06:15:12;;;;;;;45.60;41.83;;;2.60;90.30;;;;;;4995960;28;20517;-75
2021/01/15 06:17:39;;;;;;;42.50;37.10;;;2.60;89.60;;;;;;4995392;28;20164;-75
2021/01/15 06:20:05;;;;;;;41.05;37.35;;;2.60;89.40;;;;;;4995372;28;20557;-75
2021/01/15 06:22:44;;;;;;;38.80;35.03;;;2.60;90.10;;;;;;4995667;28;20661;-75
2021/01/15 06:25:10;;;;;;;40.85;34.92;;;2.60;90.20;;;;;;4995343;28;20180;-75
2021/01/15 06:27:40;;;;;;;39.37;33.33;;;2.60;90.00;;;;;;4995221;28;20246;-75
2021/01/15 06:30:19;;;;;;;40.22;36.45;;;2.60;88.90;;;;;;4994834;28;20438;-75
2021/01/15 06:32:47;;;;;;;35.60;32.20;;;2.60;89.10;;;;;;5010273;28;20259;-75
2021/01/15 06:35:33;;;;;;;41.17;37.10;;;2.60;88.20;;;;;;4995116;28;20175;-75
2021/01/15 06:38:09;;;;;;;46.17;41.88;;;2.50;88.00;;;;;;4995028;28;20180;-75
2021/01/15 06:40:46;;;;;;;44.65;40.15;;;2.50;87.70;;;;;;4994301;28;20175;-75
2021/01/15 06:43:25;;;;;;;35.65;32.50;;;2.50;89.80;;;;;;4995054;28;20160;-75
2021/01/15 06:45:56;;;;;;;34.58;30.90;;;2.50;88.60;;;;;;4994946;28;20251;-75
2021/01/15 06:48:28;;;;;;;44.28;39.75;;;2.50;88.90;;;;;;4995163;28;20196;-75
2021/01/15 06:50:57;;;;;;;37.20;33.95;;;2.50;88.90;;;;;;4994847;28;20152;-75
2021/01/15 06:53:31;;;;;;;39.65;36.00;;;2.50;89.10;;;;;;4995444;28;20631;-75
2021/01/15 06:56:01;;;;;;;36.00;32.50;;;2.50;89.40;;;;;;4994685;28;20163;-75
2021/01/15 06:58:31;;;;;;;37.10;33.63;;;2.50;90.50;;;;;;4993420;28;20198;-75
2021/01/15 07:01:17;;;;;;;46.70;42.65;;;2.60;90.90;;;;;;4994689;28;20172;-75
2021/01/15 07:04:07;;;;;;;43.80;40.10;;;2.60;90.70;;;;;;4994736;28;20246;-75
2021/01/15 07:06:34;;;;;;;43.65;40.03;;;2.50;89.90;;;;;;4994974;28;20167;-75
2021/01/15 07:09:02;;;;;;;44.10;40.40;;;2.50;87.10;;;;;;4994770;28;20753;-75
2021/01/15 07:11:29;;;;;;;41.25;37.38;;;2.50;90.10;;;;;;4994406;28;20199;-75
2021/01/15 07:13:57;;;;;;;47.50;43.40;;;2.50;90.30;;;;;;4994675;28;20183;-75
2021/01/15 07:16:33;;;;;;;54.88;50.78;;;2.50;90.10;;;;;;4994508;28;20196;-75
2021/01/15 07:19:05;;;;;;;59.90;54.88;;;2.60;90.20;;;;;;5025384;28;20282;-76
2021/01/15 07:21:36;;;;;;;56.63;51.85;;;2.50;90.10;;;;;;4993839;28;20235;-75
2021/01/15 07:24:15;;;;;;;53.75;48.95;;;2.40;88.70;;;;;;4994401;28;20522;-75
2021/01/15 07:26:44;;;;;;;50.58;46.35;;;2.50;89.80;;;;;;5025774;28;20217;-75
2021/01/15 07:29:14;;;;;;;51.75;47.45;;;2.50;90.60;;;;;;4994938;28;20191;-75
2021/01/15 07:31:45;;;;;;;47.30;43.70;;;2.50;89.20;;;;;;4994367;28;20258;-75
2021/01/15 07:34:17;;;;;;;45.10;41.45;;;2.50;89.10;;;;;;4994270;28;20682;-75
2021/01/15 07:36:43;;;;;;;48.03;43.83;;;2.50;89.00;;;;;;4993968;28;20199;-75
2021/01/15 07:39:11;;;;;;;55.50;51.20;;;2.50;90.30;;;;;;4994355;28;20192;-75
2021/01/15 07:41:47;;;;;;;44.97;41.08;;;2.50;90.90;;;;;;4994284;28;20415;-75
2021/01/15 07:44:22;;;;;;;47.22;43.53;;;2.50;90.90;;;;;;4994209;28;20167;-75
2021/01/15 07:46:49;;;;;;;44.10;39.85;;;2.40;88.60;;;;;;4994178;28;20167;-75
2021/01/15 07:49:15;;;;;;;45.03;41.08;;;2.40;88.90;;;;;;4994026;28;20204;-75
2021/01/15 07:51:40;;;;;;;43.50;39.55;;;2.40;88.70;;;;;;4993963;28;20210;-75
2021/01/15 07:54:06;;;;;;;44.70;40.67;;;2.40;88.30;;;;;;4994030;28;20175;-75
2021/01/15 07:56:32;;;;;;;42.13;38.43;;;2.40;88.70;;;;;;4994050;28;20625;-75
2021/01/15 07:58:58;;;;;;;37.33;33.73;;;2.40;87.80;;;;;;4994159;28;20192;-75
2021/01/15 08:01:23;;;;;;;41.60;37.92;;;2.40;88.30;;;;;;4994127;28;20265;-75
2021/01/15 08:03:57;;;;;;;49.97;45.67;;;2.40;89.40;;;;;;4981093;28;20219;-74
2021/01/15 08:06:25;;;;;;;43.17;39.50;;;2.40;89.10;;;;;;4973582;28;20176;-75
2021/01/15 08:09:07;;;;;;;43.00;39.50;;;2.40;88.50;;;;;;4974693;28;20204;-75
2021/01/15 08:11:36;;;;;;;37.83;34.67;;;2.40;89.20;;;;;;4974754;28;20258;-75
2021/01/15 08:14:16;;;;;;;42.08;38.47;;;2.40;88.80;;;;;;4982672;28;20191;-75
2021/01/15 08:16:46;;;;;;;44.42;40.28;;;2.40;87.60;;;;;;4984764;28;20190;-75
2021/01/15 08:19:20;;;;;;;37.22;33.97;;;2.40;88.20;;;;;;4986418;28;20208;-75
2021/01/15 08:21:48;;;;;;;40.70;37.17;;;2.40;85.70;;;;;;4974713;28;20164;-75
2021/01/15 08:24:14;;;;;;;40.80;37.38;;;2.30;83.70;;;;;;4974645;28;20318;-75
2021/01/15 08:26:48;;;;;;;38.65;34.33;;;2.30;84.70;;;;;;4974235;28;20511;-75
2021/01/15 08:29:14;;;;;;;39.30;36.03;;;2.40;85.90;;;;;;4974236;28;20195;-75
2021/01/15 08:31:40;;;;;;;43.58;40.33;;;2.30;91.20;;;;;;4974919;28;20610;-75
2021/01/15 08:34:08;;;;;;;47.93;44.63;;;2.40;84.00;;;;;;4974324;28;20254;-75
2021/01/15 08:36:37;;;;;;;62.50;58.47;;;2.40;83.20;;;;;;4972923;28;20439;-75
2021/01/15 08:39:03;;;;;;;48.75;45.22;;;2.40;84.00;;;;;;4974347;28;20192;-75
2021/01/15 08:41:29;;;;;;;48.27;44.83;;;2.40;83.60;;;;;;4974205;28;20180;-75
2021/01/15 08:43:55;;;;;;;48.60;44.83;;;2.40;81.60;;;;;;4974783;28;20816;-75
2021/01/15 08:46:22;;;;;;;52.90;49.50;;;2.40;81.40;;;;;;4972820;28;20678;-75
2021/01/15 08:48:49;;;;;;;43.33;40.08;;;2.40;80.10;;;;;;4973010;28;20235;-75
2021/01/15 08:51:21;;;;;;;42.40;38.75;;;2.40;78.80;;;;;;4974036;28;20200;-75
2021/01/15 08:54:12;;;;;;;44.92;41.72;;;2.40;77.60;;;;;;4975596;28;20172;-75
2021/01/15 08:56:39;;;;;;;45.40;42.20;;;2.30;82.10;;;;;;4980335;28;20258;-75
2021/01/15 08:59:28;;;;;;;44.72;41.72;;;2.40;75.10;;;;;;4995553;28;20203;-75
2021/01/15 09:01:55;;;;;;;44.75;41.85;;;2.30;73.70;;;;;;4996971;28;20163;-75
2021/01/15 09:04:26;;;;;;;38.10;35.30;;;2.40;73.70;;;;;;4996906;28;20176;-75
2021/01/15 09:06:53;;;;;;;46.08;42.67;;;2.40;73.50;;;;;;4996883;28;20184;-75
2021/01/15 09:09:22;;;;;;;44.85;41.60;;;2.40;75.10;;;;;;4996835;28;20192;-75
2021/01/15 09:11:49;;;;;;;37.88;35.08;;;2.40;76.20;;;;;;4996902;28;20231;-75
2021/01/15 09:14:24;;;;;;;48.08;44.63;;;2.40;72.50;;;;;;4996738;28;20190;-75
2021/01/15 09:16:52;;;;;;;36.95;33.33;;;2.40;72.40;;;;;;4996566;28;20155;-75
2021/01/15 09:19:18;;;;;;;33.28;30.27;;;2.30;71.70;;;;;;4995593;28;20274;-75
2021/01/15 09:21:56;;;;;;;40.73;37.63;;;2.40;70.30;;;;;;5007887;28;20206;-75
2021/01/15 09:24:23;;;;;;;37.55;34.80;;;2.40;71.50;;;;;;4996771;28;20410;-75
2021/01/15 09:27:08;;;;;;;40.08;37.20;;;2.40;72.40;;;;;;4996368;28;20599;-75
2021/01/15 09:29:35;;;;;;;36.20;33.60;;;2.40;72.90;;;;;;4996763;28;20191;-75
2021/01/15 09:32:01;;;;;;;32.85;30.42;;;2.30;71.60;;;;;;4996668;28;20665;-75
2021/01/15 09:34:27;;;;;;;40.83;37.83;;;2.30;68.20;;;;;;4996509;28;20669;-75
2021/01/15 09:36:53;;;;;;;44.45;41.50;;;2.20;68.30;;;;;;4996183;28;20219;-75
2021/01/15 09:39:24;;;;;;;44.33;41.25;;;2.30;68.50;;;;;;4996561;28;20207;-74
2021/01/15 09:41:57;;;;;;;37.80;35.10;;;2.20;67.00;;;;;;4996722;28;20165;-75
2021/01/15 09:44:25;;;;;;;36.15;33.75;;;2.10;65.30;;;;;;4996346;28;20152;-75
2021/01/15 09:46:57;;;;;;;36.38;33.60;;;2.00;64.60;;;;;;5027564;28;20183;-75
2021/01/15 09:49:22;;;;;;;34.47;31.70;;;2.00;64.70;;;;;;4996310;28;20247;-75
2021/01/15 09:51:50;;;;;;;36.97;34.50;;;2.00;63.20;;;;;;5027526;28;20207;-75
2021/01/15 09:54:15;;;;;;;39.17;36.58;;;1.90;59.50;;;;;;4995944;28;20171;-75
2021/01/15 09:56:41;;;;;;;37.13;34.23;;;2.00;59.00;;;;;;4995994;28;20172;-75
2021/01/15 09:59:09;;;;;;;37.13;34.47;;;1.90;61.30;;;;;;4994874;28;20277;-75
2021/01/15 10:01:34;;;;;;;31.67;29.15;;;1.90;60.30;;;;;;5027502;28;20183;-75
2021/01/15 10:04:00;;;;;;;31.20;28.50;;;1.90;59.50;;;;;;4994299;28;20586;-75
2021/01/15 10:06:28;;;;;;;42.65;39.45;;;1.90;58.80;;;;;;4995626;28;20218;-75
2021/01/15 10:08:55;;;;;;;39.00;36.38;;;1.80;56.00;;;;;;4996217;28;20196;-75
2021/01/15 10:11:32;;;;;;;36.20;33.17;;;1.80;56.10;;;;;;4995840;28;20216;-75
2021/01/15 10:14:07;;;;;;;34.88;32.28;;;1.90;56.90;;;;;;4994542;28;20184;-75
2021/01/15 10:16:37;;;;;;;38.63;35.47;;;1.90;59.70;;;;;;4997329;28;20267;-75
2021/01/15 10:19:03;;;;;;;41.97;39.15;;;2.00;60.80;;;;;;4976207;28;20184;-76
2021/01/15 10:21:30;;;;;;;32.05;29.75;;;2.10;60.40;;;;;;4976286;28;20173;-76
2021/01/15 10:23:56;;;;;;;42.45;39.70;;;2.10;57.20;;;;;;4975992;28;20184;-76
2021/01/15 10:26:26;;;;;;;39.67;36.38;;;2.00;56.50;;;;;;5001190;28;20236;-76
2021/01/15 10:28:57;;;;;;;33.42;31.02;;;1.90;56.10;;;;;;4994498;28;20200;-76
2021/01/15 10:31:32;;;;;;;36.88;34.28;;;2.00;57.30;;;;;;4986969;28;20200;-76
2021/01/15 10:33:59;;;;;;;33.35;30.85;;;2.00;58.70;;;;;;4975100;28;20311;-76
2021/01/15 10:36:25;;;;;;;37.20;34.40;;;2.00;56.70;;;;;;4975556;28;20651;-76
2021/01/15 10:38:51;;;;;;;38.72;36.22;;;2.00;52.70;;;;;;4975650;28;20275;-76
2021/01/15 10:41:33;;;;;;;37.10;34.50;;;2.00;50.20;;;;;;4975846;28;20267;-76
2021/01/15 10:44:00;;;;;;;38.63;36.22;;;1.90;51.10;;;;;;4985707;28;20180;-76
2021/01/15 10:46:30;;;;;;;42.30;39.60;;;1.90;51.30;;;;;;4994291;28;20226;-76
2021/01/15 10:48:55;;;;;;;31.52;29.15;;;1.80;51.90;;;;;;4994436;28;20204;-76
2021/01/15 10:51:21;;;;;;;30.00;27.50;;;1.80;51.10;;;;;;4993288;28;20555;-76
2021/01/15 10:53:46;;;;;;;26.97;24.67;;;1.80;51.90;;;;;;4994791;28;20175;-77
2021/01/15 10:56:12;;;;;;;39.87;36.93;;;1.80;53.80;;;;;;4993177;28;20182;-76
2021/01/15 10:58:37;;;;;;;35.00;32.60;;;1.80;53.80;;;;;;4993311;28;20187;-76
2021/01/15 11:01:03;;;;;;;33.67;31.10;;;1.90;53.50;;;;;;4994364;28;20674;-76
2021/01/15 11:03:29;;;;;;;30.23;27.83;;;1.90;50.70;;;;;;4994477;28;20180;-76
2021/01/15 11:05:54;;;;;;;34.70;32.30;;;1.90;51.30;;;;;;4994362;28;20165;-76
2021/01/15 11:08:20;;;;;;;32.00;29.53;;;1.90;51.40;;;;;;4994379;28;20237;-76
2021/01/15 11:10:45;;;;;;;28.13;25.93;;;1.90;51.10;;;;;;4994621;28;20266;-77
2021/01/15 11:13:11;;;;;;;25.50;23.53;;;2.00;50.40;;;;;;4994218;28;20192;-76
2021/01/15 11:15:36;;;;;;;29.07;26.47;;;1.90;50.00;;;;;;4993924;28;20174;-76
2021/01/15 11:18:02;;;;;;;29.77;27.33;;;2.00;50.80;;;;;;4993868;28;20579;-77
2021/01/15 11:20:27;;;;;;;29.00;26.57;;;1.90;45.90;;;;;;4994403;28;20252;-76
2021/01/15 11:22:53;;;;;;;29.50;27.10;;;1.80;41.90;;;;;;4994131;28;20583;-76
2021/01/15 11:25:18;;;;;;;30.70;28.57;;;1.80;42.30;;;;;;4994057;28;20180;-76
2021/01/15 11:27:45;;;;;;;31.30;28.40;;;1.80;38.40;;;;;;4992648;28;20259;-76
2021/01/15 11:30:11;;;;;;;33.30;31.00;;;1.80;37.90;;;;;;4994124;28;20216;-76
2021/01/15 11:32:40;;;;;;;30.50;28.55;;;1.90;38.90;;;;;;4993951;28;20200;-76
2021/01/15 11:35:07;;;;;;;26.60;24.75;;;1.90;36.70;;;;;;4993992;28;20738;-77
2021/01/15 11:37:35;;;;;;;29.23;26.83;;;1.90;35.60;;;;;;4992207;28;20188;-77
2021/01/15 11:40:03;;;;;;;30.52;28.20;;;2.00;40.30;;;;;;4993845;28;20188;-76
2021/01/15 11:42:29;;;;;;;30.15;28.17;;;2.10;40.60;;;;;;4993957;28;20179;-76
2021/01/15 11:44:54;;;;;;;31.40;29.47;;;2.10;40.20;;;;;;4993834;28;20175;-76
2021/01/15 11:47:20;;;;;;;28.30;26.40;;;2.20;39.40;;;;;;4993734;28;20180;-76
2021/01/15 11:49:45;;;;;;;32.43;30.33;;;2.10;34.90;;;;;;4993669;28;20203;-76
2021/01/15 11:52:11;;;;;;;26.77;25.13;;;2.00;31.20;;;;;;4993763;28;20736;-76
2021/01/15 11:54:37;;;;;;;27.33;25.60;;;1.90;27.50;;;;;;4993794;28;20196;-76
2021/01/15 11:57:02;;;;;;;30.30;28.60;;;1.90;26.40;;;;;;4993684;28;20681;-76
2021/01/15 11:59:28;;;;;;;29.97;28.17;;;1.90;28.00;;;;;;4993580;28;20233;-76
2021/01/15 12:01:55;;;;;;;30.60;28.60;;;2.00;24.90;;;;;;4993596;28;20180;-76
2021/01/15 12:04:21;;;;;;;33.13;31.27;;;2.00;27.90;;;;;;4992362;28;20183;-76
2021/01/15 12:06:51;;;;;;;31.87;29.77;;;2.00;27.90;;;;;;4993514;28;20176;-76
2021/01/15 12:09:17;;;;;;;28.13;26.40;;;2.00;24.00;;;;;;4993855;28;20214;-76
2021/01/15 12:11:42;;;;;;;27.20;25.60;;;2.00;21.20;;;;;;4993545;28;20212;-76
2021/01/15 12:14:08;;;;;;;30.07;28.47;;;2.00;21.20;;;;;;4993576;28;20199;-76
2021/01/15 12:16:34;;;;;;;28.93;27.23;;;2.10;19.90;;;;;;4993304;28;20168;-76
2021/01/15 12:19:00;;;;;;;25.27;23.48;;;2.10;18.70;;;;;;4993122;28;20184;-76
2021/01/15 12:21:26;;;;;;;25.03;23.63;;;1.90;17.50;;;;;;4993251;28;20587;-76
2021/01/15 12:23:51;;;;;;;29.00;27.50;;;1.90;15.50;;;;;;4991764;28;20425;-75
2021/01/15 12:26:17;;;;;;;30.27;28.60;;;1.70;10.70;;;;;;4993064;28;20234;-76
2021/01/15 12:28:43;;;;;;;27.30;25.60;;;1.80;14.20;;;;;;4994874;28;20195;-76
2021/01/15 12:31:09;;;;;;;21.77;20.48;;;1.90;16.00;;;;;;4997055;28;20174;-76
2021/01/15 12:33:34;;;;;;;24.97;23.17;;;1.90;13.60;;;;;;4997235;28;20255;-76
2021/01/15 12:36:00;;;;;;;24.97;23.60;;;1.80;11.50;;;;;;4996689;28;20179;-76
2021/01/15 12:38:26;;;;;;;27.70;26.30;;;1.80;12.50;;;;;;4996990;28;20180;-77
2021/01/15 12:40:52;;;;;;;26.27;24.77;;;1.70;12.30;;;;;;4997172;28;20176;-77
2021/01/15 12:43:19;;;;;;;26.83;25.65;;;1.70;14.50;;;;;;4997348;28;20257;-77
2021/01/15 12:45:47;;;;;;;29.70;28.30;;;1.60;12.40;;;;;;4996915;28;20172;-76
2021/01/15 12:48:14;;;;;;;31.25;29.58;;;1.60;12.60;;;;;;4996846;28;20634;-77